Aviation Digital Data Service (ADDS)

Output produced by METARs form (1053 UTC 19 January 2019)
found at http://www.aviationweather.gov/metar/data/
 
KABI 190952Z 33020G27KT 10SM SCT016 BKN021 OVC032 03/01 A3007 RMK AO2 PK WND 34040/0922 RAB0854E03 SLP171 P0000 T00280006
KABI 190520Z 1906/2006 34022G32KT P6SM BKN025 
     FM191200 33018G26KT P6SM SCT060 
     FM191700 34022G32KT P6SM SCT250 
     FM192300 34012KT P6SM SKC 
     FM200200 02006KT P6SM SKC
       
KALI 190953Z AUTO 34012KT 10SM BKN047 BKN055 19/16 A2989 RMK AO2 SLP121 T01890161
KALI 190911Z 1909/2006 24009KT 5SM BR VCSH BKN025 
     FM191100 33018G25KT P6SM SCT040 BKN250 
     FM191600 33022G33KT P6SM SKC 
     FM200000 34010KT P6SM SKC
       
KE38 191035Z AUTO 36016KT 10SM CLR 05/M03 A3030 RMK AO2 T00491028
KAMA 190953Z AUTO 33017G30KT 10SM OVC014 M02/M05 A3013 RMK AO2 PK WND 35033/0915 SLP193 T10221050
KAMA 190842Z 1909/2006 34023G34KT P6SM OVC015 
     TEMPO 1909/1911 SCT015 
     FM191100 34018G28KT P6SM SCT120 
     FM192200 34010G20KT P6SM SKC 
     FM200400 16005KT P6SM SKC
       
KE11 191035Z AUTO 35012KT 10SM CLR 02/M03 A3022 RMK AO2 T00211026
KLBX 191042Z AUTO 23003KT 10SM 15/14 A2979 RMK AO2 TSB0959E14 P0020 T01500139 $
KLBX 191006Z 1910/2006 22012KT P6SM VCTS BKN015CB OVC025 
     TEMPO 1910/1912 VRB15G25KT 1SM TSRA SCT007 BKN015CB OVC030 
     FM191200 25013G23KT P6SM BKN025 OVC035 
     FM191500 32019G29KT P6SM SCT030 
     FM192000 33017KT P6SM SCT250 
     FM200300 34012KT P6SM SKC
       
KGKY 190953Z AUTO 31020G34KT 10SM OVC024 07/02 A2986 RMK AO2 PK WND 30037/0906 SLP106 T00670017 $
KGKY 190905Z 1909/2006 32027G37KT P6SM OVC020 
     TEMPO 1911/1912 5SM -RASN 
     FM191600 33028G38KT P6SM SCT030 
     FM192300 34018KT P6SM FEW250
       
KF44 191035Z AUTO 32012G27KT 10SM OVC018 11/07 A2975 RMK AO2
KEDC 191035Z AUTO 32021G31KT 10SM CLR 09/02 A2990 RMK AO2
KAUS 190953Z 32017G29KT 10SM FEW100 12/02 A2988 RMK AO2 PK WND 31041/0902 SLP117 T01220022
KAUS 190526Z 1906/2012 24010KT P6SM SCT004 
     FM190900 31015G25KT P6SM SCT025 
     FM191200 33020G30KT P6SM SKC 
     FM200000 34012KT P6SM SKC
       
KDZB 191035Z AUTO 31011G22KT 10SM BKN039 09/01 A2997 RMK AO2 T00910013
KBYY 191035Z AUTO 30003KT 10SM SCT037 OVC045 15/15 A2981 RMK AO2 P0001 T01520147
KBMT 191035Z AUTO 30007KT 10SM -VCTSRA SCT011 BKN055 OVC070 16/14 A2975 RMK AO2 LTG DSNT ALQDS T01610143
KBPT 191047Z AUTO 29018G30KT 3/4SM R12/1800VP6000FT +TSRA BR FEW008 BKN014 OVC039 16/14 A2977 RMK AO2 PK WND 28030/1040 WSHFT 1029 LTG DSNT ALQDS TSB19 PRESRR P0033 $
KBPT 190928Z 1909/2006 21015G21KT 4SM TSRA OVC006CB 
     TEMPO 1909/1912 VRB18G40KT 1SM TSRA BR SCT004 BKN012CB 
     FM191200 27013G20KT P6SM -SHRA SCT006 OVC015 
     FM191400 31020G28KT P6SM OVC035 
     FM192300 32015G20KT P6SM SCT250
       
KBEA 191035Z AUTO 31006KT 10SM SCT060 BKN070 18/13 A2989 RMK AO2 T01760131
KBPG 191035Z AUTO 31011G16KT 10SM CLR 03/M03 A3020 RMK AO2 T00261026
KF00 191035Z AUTO 32022G31KT 1 3/4SM -RA BR BKN013 OVC017 03/02 A2981 RMK AO2 T00270019
KBGD 190951Z AUTO 35015KT 10SM OVC019 M02/M06 A3017 RMK AO2 PK WND 34028/0929 SLP223 T10171061 $
K0F2 191035Z AUTO 32021G26KT 7SM -SN OVC008 01/00 A2997 RMK AO2 T00051005
KBBD 191035Z AUTO 33019G31KT 10SM BKN031 OVC037 05/M01 A3004 RMK AO2
KBBD 190520Z 1906/2006 31018G25KT P6SM BKN050 
     FM190700 32022G32KT P6SM SCT030 SCT250 
     TEMPO 1907/1911 BKN025 
     FM200000 33012KT P6SM SKC 
     FM200300 35006KT P6SM SKC
       
KBKD 190740Z AUTO 33016G28KT 7SM BKN019 OVC026 A2995 RMK AO2
K11R 191035Z AUTO 30026G36KT 10SM OVC100 14/06 A2986 RMK AO2 T01390057
KXBP 191035Z AUTO 32016KT 7SM -RA SCT008 OVC014 02/02 A3000 RMK AO2 P0001 T00150015
KBRO 190953Z AUTO 19014KT 10SM CLR 21/20 A2983 RMK AO2 SLP099 T02110200
KBRO 190520Z 1906/2006 18015KT P6SM SKC 
     FM191000 23013G20KT P6SM BKN015 
     FM191300 30015G22KT P6SM BKN025 
     FM191500 32025G34KT P6SM SCT250 
     FM200100 33010KT P6SM SKC
       
KBWD 191035Z AUTO 33025G31KT 10SM SCT025 OVC033 05/00 A3004 RMK AO1
KCFD 191035Z AUTO 30022G31KT 10SM BKN110 11/05 A2986 RMK AO2 T01060050
KBMQ 190953Z AUTO 30018G29KT 10SM FEW035 08/01 A2995 RMK AO2 PK WND 29033/0855 RAE0856 SLP135 P0000 T00830011
KRWV 191035Z AUTO 30020G26KT 10SM SCT120 11/04 A2987 RMK AO2 T01080044
KT35 191035Z AUTO 31023G31KT 10SM OVC039 11/04 A2990 RMK AO2 T01050037
KHHF 191035Z AUTO 34010G21KT 10SM SCT020 M02/M06 A3016 RMK AO2 T10241056
KCVB 191035Z AUTO 32021G29KT 10SM CLR 13/02 A2996 RMK AO2 T01320023
KF17 191035Z AUTO 20004KT 10SM OVC100 15/14 A2967 RMK AO2 T01510144
KCDS 190953Z AUTO 35020G30KT 10SM SCT034 BKN110 02/M06 A3012 RMK AO2 PK WND 35041/0923 SLP191 T00171056
KCDS 190520Z 1906/2006 35028G41KT P6SM BKN020 
     FM191000 35021G31KT P6SM BKN050 
     FM191400 34020KT P6SM SKC
       
KCPT 191035Z AUTO 32030G39KT 10SM 05/M00 A2993 RMK AO2
K6R3 191035Z AUTO 24005KT 10SM OVC090 16/16 A2976 RMK AO2 T01600160
KCOM 191035Z AUTO 34024G33KT 10SM BKN024 BKN030 OVC065 04/M01 A3008 RMK AO2 T00381012
KCLL 190953Z AUTO 30025G41KT 10SM OVC100 15/07 A2980 RMK AO2 PK WND 30041/0949 SLP089 T01500067
KCLL 191004Z 1910/2006 31020G35KT P6SM BKN100 
     FM191100 28014G24KT P6SM SCT035 BKN120 
     FM191400 31019G29KT P6SM SCT020 BKN035 
     FM191700 33020KT P6SM SKC 
     FM200300 34012KT P6SM SKC
       
K66R 191035Z AUTO 30011G17KT 10SM OVC085 16/11 A2983 RMK AO2 T01560106
KMKN 191035Z AUTO 33024G31KT 10SM SCT019 OVC030 04/01 A3003 RMK AO2 T00400005
KCRP 190951Z 28006KT 8SM FEW010 BKN034 OVC047 19/18 A2986 RMK AO2 RAB25E49 SLP111 P0000 T01940183
KCRP 191002Z 1910/2006 30012G20KT 6SM BR BKN035 
     TEMPO 1910/1912 4SM -SHRA BKN015 
     FM191200 33018G25KT P6SM SCT040 BKN250 
     FM191700 33022G33KT P6SM SKC 
     FM200000 34012KT P6SM SKC
       
KCRS 190953Z AUTO 31025G33KT 10SM FEW023 BKN029 11/07 A2980 RMK AO2 PK WND 30034/0938 SLP088 T01110067
KCOT 190953Z AUTO 32013KT 10SM CLR 14/06 A2995 RMK AO2 SLP136 T01440056
KDKR 191035Z AUTO 29020G33KT 10SM 14/08 A2977 RMK AO2
KDHT 190953Z AUTO 34007KT 10SM CLR M02/M06 A3018 RMK AO2 SLP218 T10221056
KDHT 190559Z 1906/2006 36022G38KT P6SM SCT015 
     TEMPO 1906/1908 BKN015 
     FM191000 34013G23KT P6SM FEW200 
     FM192300 32006KT P6SM SKC 
     FM200200 16005KT P6SM SKC 
     FM200500 19005KT P6SM SKC
       
KADS 191035Z AUTO 32023G32KT 10SM BKN016 OVC022 04/01 A2990 RMK AO2 T00370006
KDFW 190953Z 33025G33KT 10SM OVC023 06/01 A2983 RMK AO2 PK WND 33038/0935 RAE50 SLP097 P0000 T00560011
KDFW 190905Z 1909/2012 32027G37KT P6SM OVC020 
     TEMPO 1911/1912 5SM -RASN 
     FM191600 33028G38KT P6SM SCT030 
     FM192300 34018KT P6SM FEW250
       
KDAL 190953Z 32020G33KT 10SM OVC021 07/02 A2984 RMK AO2 PK WND 33036/0859 SLP102 T00670022 $
KDAL 190905Z 1909/2006 32027G37KT P6SM OVC020 
     TEMPO 1911/1912 5SM -RASN 
     FM191600 33028G38KT P6SM SCT030 
     FM192300 34018KT P6SM FEW250
       
KRBD 190953Z AUTO 32028G37KT 10SM OVC021 06/01 A2981 RMK AO2 PK WND 31040/0908 SLP092 T00560011
KLUD 191035Z AUTO 31015G26KT 1 1/2SM -SN BKN005 OVC009 00/00 A2994 RMK AO2 T00031001
KDRT 190953Z AUTO 31013G25KT 10SM CLR 12/03 A3009 RMK AO2 PK WND 32037/0913 SLP181 T01220028
KDRT 190526Z 1906/2006 33015G25KT P6SM FEW250 
     FM200000 32012KT P6SM SKC
       
K6R6 190953Z AUTO 31012G17KT 09/02 A3016 RMK AO1 PK WND 35031/0908 SLP192 T00940017
KDUX 191035Z AUTO 32014G19KT 10SM CLR M04/M06 A3017 RMK AO2 T10421060
KELA 191035Z AUTO 28009KT 10SM OVC080 17/14 A2981 RMK AO2 T01730143
K5T9 191035Z AUTO 33020G35KT 10SM CLR 10/M04 A3008 RMK A01
KETN 191035Z AUTO 33021G36KT 10SM -DZ BKN017 BKN024 OVC033 01/M01 A3005 RMK AO2 T00141009
KEBG 191035Z AUTO 33008G16KT 10SM BKN012 OVC035 21/18 A2991 RMK AO2 T02050182
KBKS 191035Z AUTO 33009G17KT 10SM SCT049 20/16 A2991 RMK AO1 T01990158
KFST 190953Z AUTO 35014KT 10SM CLR 06/M01 A3024 RMK AO2 SLP211 T00611006
KFST 190708Z 1907/2006 34016G23KT P6SM SKC 
     FM191200 33011KT P6SM SKC
       
KAFW 191029Z 32021G31KT 4SM -SN BR FEW009 BKN015 OVC034 02/M01 A2992 RMK AO2 PK WND 31039/0955 RAE25SNB06 P0000 T00171006 $
KAFW 190905Z 1909/2006 32027G37KT P6SM OVC020 
     TEMPO 1911/1912 5SM -RASN 
     FM191600 33028G38KT P6SM SCT030 
     FM192300 34018KT P6SM FEW250
       
KFTW 190953Z 31026G39KT 10SM OVC022 04/01 A2989 RMK AO2 PK WND 31041/0900 PRESRR SLP120 T00440011
KFTW 190905Z 1909/2006 32027G37KT P6SM OVC020 
     TEMPO 1911/1912 5SM -RASN 
     FM191600 33028G38KT P6SM SCT030 
     FM192300 34018KT P6SM FEW250
       
KFWS 191015Z AUTO 31028G36KT 10SM OVC023 06/01 A2992 RMK AO2 T00550005
KT82 191035Z AUTO 31017G27KT 10SM CLR 07/M01 A3000 RMK AO2 T00661014
KGLE 191035Z AUTO 02021G29KT 1 3/4SM -SN OVC007 00/00 A2994 RMK AO2 T00021004
KGLS 191036Z AUTO 27012G22KT 3SM -RA BR FEW006 BKN031 OVC050 16/16 A2980 RMK AO2 PK WND 27031/1010 WSHFT 1001 LTG DSNT N AND NE RAB11 P0007 T01560156
KGLS 191019Z 1910/2006 24011KT P6SM VCTS SCT015CB OVC025 
     TEMPO 1910/1911 VRB15G30KT 1SM +TSRA BKN006 BKN015CB OVC025CB 
     FM191300 31018G28KT P6SM BKN025 OVC035 
     FM191600 32019G29KT P6SM SCT030 
     FM192100 31023KT P6SM SCT250 
     FM200300 34020KT P6SM SKC
       
KGOP 191035Z AUTO 31017G34KT 10SM SCT027 BKN033 BKN045 07/01 A2996 RMK AO2
KGTU 190956Z AUTO 30016G26KT 10SM CLR 09/02 A2991 RMK AO2 PK WND 31029/0927 SLP129 T00890022
KGYB 191035Z AUTO 32018G30KT 10SM SCT110 10/02 A2989 RMK AO2 T00970019
KJXI 191035Z AUTO 26017G25KT 10SM SCT023 13/10 A2965 RMK AO2 T01340096
KT20 191035Z AUTO 33012G24KT 10SM BKN110 14/06 A2989 RMK AO2 T01440062
KRPH 191035Z AUTO 32013G24KT 3SM -SN BKN010 OVC013 00/00 A3003 RMK AO2 T00040000
KGDJ 191035Z AUTO 31022G30KT 10SM BKN018 BKN030 OVC040 04/01 A2999 RMK AO2 T00440010
KGPM 191035Z AUTO 29015G25KT 260V320 10SM SCT023 BKN028 BKN034 06/00 A2991 RMK AO2 T00570001
KGVT 191035Z AUTO 31023G31KT 10SM OVC017 08/05 A2979 RMK AO2
KMNZ 191035Z AUTO 33033G43KT 10SM BKN022 BKN031 OVC039 05/00 A2998 RMK AO2 T00510003
KHRL 190952Z AUTO 19014KT 10SM CLR 20/18 A2980 RMK AO2 SLP092 T02000183 $
KHRL 190830Z 1909/2006 19017KT P6SM SKC 
     FM191200 28016G23KT P6SM BKN025 
     FM191500 34026G34KT P6SM SCT250 
     FM200000 33013KT P6SM SKC
       
KLHB 191035Z AUTO 29014G23KT 10SM BKN036 BKN120 10/06 A2988 RMK AO2 T01040062
KHBV 191030Z AUTO 35014G21KT 7SM CLR 16/10 A2995 RMK AO2 T01630099
KRFI 191035Z AUTO 10SM BKN110 16/09 A2966 RMK AO2 T01560087
KHRX 191035Z AUTO 32007KT 10SM CLR M03/M05 A3019 RMK AO2 T10321047
KINJ 191035Z AUTO 31027G38KT 10SM OVC021 07/03 A2988 RMK AO2 T00700029
KHDO 190951Z AUTO 32026G37KT 10SM CLR 16/03 A2994 RMK AO2 PK WND 32037/0945 SLP127 T01560028 $
KDWH 190953Z AUTO 24006KT 10SM -RA FEW070 BKN100 OVC110 17/16 A2976 RMK AO2 RAE0856B14 SLP077 P0000 T01670161
KEFD 190950Z 26009KT 10SM FEW015 SCT030 BKN250 16/15 A2979 RMK TSE43
TAF AMD KEFD 191030Z 1910/2010 28010G15KT 8000 BR FEW015 OVC030 QNH2976INS 
     TEMPO 1910/1912 31015G35KT 3200 -TSRAGR OVC015CB 
     BECMG 1911/1912 33015G25KT 9999 NSW BKN025 QNH2981INS 
     TEMPO 1912/1922 33020G35KT 520001 
     BECMG 2000/2001 32012KT 9999 SCT040 QNH3010INS TX21/1910Z TN03/2004Z
       
KIAH 190953Z 19005KT 10SM -RA FEW009 BKN080 OVC110 17/17 A2976 RMK AO2 LTG DSNT E-S RAE17B44 TSE29 SLP078 CB DSNT E-S-SW MOV NE P0000 T01720167
KIAH 190935Z 1910/2012 24007KT P6SM SCT040 OVC080 
     FM191200 28014G24KT P6SM FEW040 BKN080 
     FM191500 31020G30KT P6SM SCT030 
     FM192100 32017KT P6SM SKC 
     FM200400 34012KT P6SM SKC
       
KTME 191035Z AUTO 28011G19KT 10SM OVC075 17/15 A2981 RMK AO2
KAXH 191035Z AUTO 27004KT 10SM -DZ OVC075 15/15 A2979 RMK AO2 LTG DSNT NE AND E T01530147
KCXO 190953Z AUTO 25004KT 10SM BKN090 BKN110 17/17 A2975 RMK AO2 RAB0854E08 SLP072 P0000 T01670167
KCXO 190858Z 1909/2006 25009KT P6SM VCTS FEW035CB SCT060 OVC120 
     FM191000 28012G22KT P6SM SCT025 OVC080 
     FM191400 31020G30KT P6SM SCT030 
     FM192100 32016KT P6SM SKC 
     FM200300 34012KT P6SM SKC
       
KLVJ 191000Z AUTO 26006KT 10SM -RA SCT029 SCT050 OVC090 17/16 A2980 RMK AO2 LTG DSNT NE-S TSE0954 P0000 T01670161